Stations météo

Publicité
Kinbrace, Grande-Bretagne (99016): Température de l'air & dewpoint: 20.06.2019 19:00:00 - 26.06.2019 19:00:00 (BST)Kinbrace, Grande-Bretagne (99016): Vitesse du vent & gusts: 20.06.2019 19:00:00 - 26.06.2019 19:00:00 (BST)Kinbrace, Grande-Bretagne (99016): Direction du vent: 20.06.2019 19:00:00 - 26.06.2019 19:00:00 (BST)Kinbrace, Grande-Bretagne (99016): Quantités de précipitations: 20.06.2019 19:00:00 - 26.06.2019 19:00:00 (BST)
Date & Time tt [°C] td [°C] ff [km/h] ff [knt] fx [km/h] fx [knt] dd rr [mm]
26.06.2019 19:00:00 16,1 9,5 21 11 - - NW -
26.06.2019 18:00:00 16,1 9,7 28 15 - - NW 0,0
26.06.2019 17:00:00 16,6 10,2 28 15 - - NW 0,0
26.06.2019 16:00:00 16,9 10,7 26 14 - - NW 0,0
26.06.2019 15:00:00 16,3 9,8 21 11 - - WNW 0,0
26.06.2019 14:00:00 15,7 9,7 21 11 - - NW 0,0
26.06.2019 13:00:00 14,6 9,6 21 11 - - WNW 0,0
26.06.2019 12:00:00 13,7 9,3 21 11 - - NW 0,0
26.06.2019 11:00:00 12,8 8,3 16 9 - - NW 0,0
26.06.2019 10:00:00 12,1 7,7 22 12 - - NW 0,0
26.06.2019 09:00:00 12,2 7,8 18 10 - - WNW 0,0
26.06.2019 08:00:00 10,7 7,8 9 5 - - NNW 0,0
26.06.2019 07:00:00 9,5 7,3 11 6 - - NW 0,0
26.06.2019 06:00:00 8,9 7,0 8 4 - - NNW 0,0
26.06.2019 05:00:00 8,4 6,7 8 4 - - NNW 0,0
26.06.2019 04:00:00 7,9 6,3 5 3 - - NW 0,0
26.06.2019 03:00:00 8,2 6,3 8 4 - - NNW 0,0
26.06.2019 02:00:00 8,2 6,1 8 4 - - N 0,0
26.06.2019 01:00:00 8,8 6,1 13 7 - - NNW 0,0
26.06.2019 00:00:00 9,1 6,8 9 5 - - NNW 0,0
25.06.2019 23:00:00 9,1 6,7 15 8 - - NNW 0,0
25.06.2019 22:00:00 9,3 6,6 15 8 - - N 0,0
25.06.2019 21:00:00 9,8 7,3 15 8 - - NNW 0,0
25.06.2019 20:00:00 10,1 7,3 18 10 - - N 0,0
25.06.2019 19:00:00 11,2 7,3 24 13 - - N 0,0
25.06.2019 18:00:00 12,1 7,7 21 11 - - N 0,0
25.06.2019 17:00:00 12,1 7,7 24 13 - - NNW 0,0
25.06.2019 16:00:00 13,1 8,0 21 11 - - N 0,0
25.06.2019 15:00:00 14,5 10,0 26 14 - - N 0,0
25.06.2019 14:00:00 13,8 10,3 18 10 - - N 0,0
25.06.2019 13:00:00 13,0 10,2 21 11 - - N 0,0
25.06.2019 12:00:00 12,2 10,8 18 10 - - N 0,0
25.06.2019 11:00:00 11,1 10,4 21 11 - - N 0,0
25.06.2019 10:00:00 11,2 10,8 18 10 - - N 0,0
25.06.2019 09:00:00 11,4 11,1 16 9 - - N 0,0
25.06.2019 08:00:00 11,0 10,7 9 5 - - N 0,2
25.06.2019 07:00:00 10,7 10,4 13 7 - - NNW 0,0
25.06.2019 06:00:00 10,5 10,3 15 8 - - N 0,2
25.06.2019 05:00:00 10,4 10,1 13 7 - - NNW 0,2
25.06.2019 04:00:00 10,4 10,1 16 9 - - N 0,0
25.06.2019 03:00:00 10,4 10,1 16 9 - - N 0,0
25.06.2019 02:00:00 10,4 10,2 18 10 - - NNW 0,2
25.06.2019 01:00:00 10,4 10,1 18 10 - - N 0,2
25.06.2019 00:00:00 10,7 10,3 15 8 - - N 0,0
24.06.2019 23:00:00 10,7 10,2 13 7 - - NNE 0,0
24.06.2019 22:00:00 10,8 10,2 13 7 - - NNE 0,2
24.06.2019 21:00:00 10,9 10,3 9 5 - - N 0,0
24.06.2019 20:00:00 10,8 10,2 11 6 - - N 0,2
24.06.2019 19:00:00 10,7 10,0 13 7 - - N 0,4
24.06.2019 18:00:00 10,8 9,6 11 6 - - NE 0,0
24.06.2019 17:00:00 11,3 9,8 16 9 - - NE 0,0
24.06.2019 16:00:00 10,9 9,1 8 4 - - SE 0,0
24.06.2019 15:00:00 10,8 8,6 13 7 - - NE 0,0
24.06.2019 14:00:00 11,9 8,9 5 3 - - WNW 0,0
24.06.2019 13:00:00 11,9 9,9 5 3 - - E 0,0
24.06.2019 12:00:00 11,6 9,9 9 5 - - SE 0,6
24.06.2019 11:00:00 11,5 10,1 13 7 - - SE 2,2
24.06.2019 10:00:00 11,8 9,9 21 11 - - SE 0,2
24.06.2019 09:00:00 12,6 8,7 16 9 - - SE 0,0
24.06.2019 08:00:00 12,5 9,2 18 10 - - SE 0,0
24.06.2019 07:00:00 11,9 9,3 11 6 - - SE 0,0
24.06.2019 06:00:00 11,5 9,1 11 6 - - SSE 0,0
24.06.2019 05:00:00 11,4 9,5 9 5 - - SE 0,0
24.06.2019 04:00:00 11,1 8,9 11 6 - - SSE 0,0
24.06.2019 03:00:00 11,6 9,5 18 10 - - SSE 0,0
24.06.2019 02:00:00 11,6 9,3 26 14 - - SE 0,0
24.06.2019 01:00:00 11,9 9,6 24 13 - - ESE 0,0
24.06.2019 00:00:00 12,1 8,7 21 11 - - ESE 0,0
23.06.2019 23:00:00 12,6 7,6 18 10 - - ESE 0,0
23.06.2019 22:00:00 14,0 7,7 21 11 - - ESE 0,0
23.06.2019 21:00:00 13,8 9,2 22 12 - - ESE 0,0
23.06.2019 20:00:00 14,7 9,5 18 10 - - SE 0,0
23.06.2019 19:00:00 16,3 10,6 26 14 - - SE 0,0
23.06.2019 18:00:00 17,2 11,5 24 13 - - E 0,0
23.06.2019 17:00:00 17,8 9,3 21 11 - - ESE 0,0
23.06.2019 16:00:00 18,2 8,1 22 12 - - ESE 0,0
23.06.2019 15:00:00 18,3 9,1 22 12 - - SE 0,0
23.06.2019 14:00:00 18,1 9,0 18 10 - - ESE 0,0
23.06.2019 13:00:00 17,3 9,4 18 10 - - ESE 0,0
23.06.2019 12:00:00 17,6 10,1 13 7 - - ESE 0,0
23.06.2019 11:00:00 15,6 9,1 15 8 - - E 0,0
23.06.2019 10:00:00 14,6 9,6 13 7 - - ESE 0,0
23.06.2019 09:00:00 13,3 11,1 5 3 - - S 0,0
23.06.2019 08:00:00 10,2 9,9 4 2 - - SSE 0,0
23.06.2019 07:00:00 9,1 9,0 2 1 - - NNW 0,0
23.06.2019 06:00:00 7,6 7,4 4 2 - - NNW 0,0
23.06.2019 05:00:00 6,7 6,4 2 1 - - W 0,0
23.06.2019 04:00:00 7,0 6,7 2 1 - - SE 0,0
23.06.2019 03:00:00 7,1 6,8 4 2 - - SSE 0,0
23.06.2019 02:00:00 6,6 6,1 0 0 - - N 0,0
23.06.2019 01:00:00 6,4 5,7 2 1 - - ESE 0,0
23.06.2019 00:00:00 8,1 7,3 2 1 - - NE 0,0
22.06.2019 23:00:00 9,5 8,3 2 1 - - WNW 0,0
22.06.2019 22:00:00 10,9 9,0 4 2 - - NW 0,0
22.06.2019 21:00:00 13,6 10,2 9 5 - - NNE 0,0
22.06.2019 20:00:00 13,7 10,9 4 2 - - SSE 0,0
22.06.2019 19:00:00 12,7 10,7 9 5 - - E 1,8
22.06.2019 18:00:00 13,0 10,7 9 5 - - E 2,2
22.06.2019 17:00:00 13,4 11,3 15 8 - - E 0,0
22.06.2019 16:00:00 13,8 10,4 9 5 - - ENE 3,0
22.06.2019 15:00:00 16,7 7,4 9 5 - - WNW 0,0
22.06.2019 14:00:00 18,1 8,4 11 6 - - W 0,0
22.06.2019 13:00:00 17,1 8,1 11 6 - - SSW 0,0
22.06.2019 12:00:00 16,9 8,7 13 7 - - SSW 0,0
22.06.2019 11:00:00 15,1 6,7 13 7 - - S 0,0
22.06.2019 10:00:00 15,2 5,3 15 8 - - SSW 0,0
22.06.2019 09:00:00 12,6 4,4 13 7 - - SSW 0,0
22.06.2019 08:00:00 12,7 4,1 13 7 - - SSE 0,0
22.06.2019 07:00:00 9,2 4,2 5 3 - - SSE 0,0
22.06.2019 06:00:00 5,7 3,7 4 2 - - N 0,0
22.06.2019 05:00:00 5,0 2,8 8 4 - - S 0,0
22.06.2019 04:00:00 5,8 4,0 5 3 - - SSE 0,0
22.06.2019 03:00:00 5,6 4,3 4 2 - - SE 0,0
22.06.2019 02:00:00 6,7 4,7 5 3 - - S 0,0
22.06.2019 01:00:00 7,8 4,5 8 4 - - SW 0,0
22.06.2019 00:00:00 9,2 5,1 8 4 - - WSW 0,0
21.06.2019 23:00:00 8,8 4,4 11 6 - - WSW 0,0
21.06.2019 22:00:00 10,3 4,2 11 6 - - W 0,0
21.06.2019 21:00:00 11,5 3,9 13 7 - - W 0,0
21.06.2019 20:00:00 12,2 3,0 21 11 - - W 0,0
21.06.2019 19:00:00 12,5 4,6 21 11 - - WNW 0,0
21.06.2019 18:00:00 13,4 5,9 26 14 - - WNW 0,0
21.06.2019 17:00:00 12,7 5,9 26 14 48 26 WNW 0,0
21.06.2019 16:00:00 13,4 5,8 29 16 - - NW 0,0
21.06.2019 15:00:00 13,5 6,0 31 17 46 25 NW 0,0
21.06.2019 14:00:00 12,7 6,0 29 16 - - NW 0,0
21.06.2019 13:00:00 12,3 7,4 22 12 - - WNW 0,0
21.06.2019 12:00:00 12,6 7,8 34 18 - - NW 0,0
21.06.2019 11:00:00 10,2 7,3 26 14 - - NW 0,0
21.06.2019 10:00:00 9,0 7,4 21 11 - - NW 0,4
21.06.2019 09:00:00 10,2 6,4 21 11 - - WNW 0,0
21.06.2019 08:00:00 10,0 5,6 21 11 - - WNW 0,0
21.06.2019 07:00:00 9,1 6,0 11 6 - - WSW 0,0
21.06.2019 06:00:00 9,6 6,1 16 9 - - W 0,0
21.06.2019 05:00:00 8,2 5,8 9 5 - - W 0,0
21.06.2019 04:00:00 8,0 5,4 15 8 - - W 0,0
21.06.2019 03:00:00 8,8 6,1 9 5 - - W 0,0
21.06.2019 02:00:00 8,6 6,1 11 6 - - W 0,0
21.06.2019 01:00:00 8,7 5,9 15 8 - - W 0,0
21.06.2019 00:00:00 9,0 6,3 18 10 - - W 0,0
20.06.2019 23:00:00 9,2 7,3 5 3 - - SW 0,0
20.06.2019 22:00:00 9,8 6,9 9 5 - - W 0,0
20.06.2019 21:00:00 10,6 7,0 16 9 - - W 0,0
20.06.2019 20:00:00 10,8 6,9 16 9 - - W 0,0
20.06.2019 19:00:00 11,9 6,0 28 15 - - W 0,0

tt = Température de l'air
td = dewpoint
ff = Vitesse du vent
fx = gusts
dd = Direction du vent
rr = Quantités de précipitations

stations d'obs. à proximité